createdAt,value
2018-02-12T00:00:39.073Z,91.10
2018-02-12T00:03:06.468Z,90.85
2018-02-12T00:05:33.892Z,90.51
2018-02-12T00:20:09.105Z,90.02
2018-02-12T00:22:36.521Z,89.61
2018-02-12T00:25:03.945Z,89.83
2018-02-12T00:27:31.365Z,89.99
2018-02-12T00:29:58.767Z,90.36
2018-02-12T00:32:26.743Z,90.01
2018-02-12T00:34:54.168Z,90.32
2018-02-12T00:37:21.582Z,90.43
2018-02-12T00:39:49.014Z,90.38
2018-02-12T00:42:16.425Z,90.52
2018-02-12T00:44:43.861Z,90.43
2018-02-12T00:47:11.278Z,90.87
2018-02-12T00:49:38.692Z,90.96
2018-02-12T00:52:06.141Z,90.76
2018-02-12T00:54:33.548Z,90.20
2018-02-12T00:57:00.966Z,89.85
2018-02-12T00:59:28.385Z,88.73
2018-02-12T01:01:55.796Z,88.75
2018-02-12T01:04:23.213Z,88.95
2018-02-12T01:06:50.653Z,88.16
2018-02-12T01:09:18.054Z,88.30
2018-02-12T01:11:45.508Z,88.01
2018-02-12T01:14:13.021Z,87.80
2018-02-12T01:16:40.478Z,88.05
2018-02-12T01:19:07.885Z,87.57
2018-02-12T01:21:35.293Z,87.49
2018-02-12T01:24:02.710Z,87.53
2018-02-12T01:26:30.106Z,87.43
2018-02-12T01:28:58.197Z,87.59
2018-02-12T01:31:25.617Z,87.67
2018-02-12T01:33:53.018Z,87.57
2018-02-12T01:36:20.426Z,87.94
2018-02-12T01:38:47.885Z,88.11
2018-02-12T01:41:15.293Z,87.96
2018-02-12T01:43:42.717Z,87.74
2018-02-12T01:46:10.130Z,87.25
2018-02-12T01:48:37.580Z,87.27
2018-02-12T01:51:04.975Z,86.92
2018-02-12T01:53:32.398Z,87.01
2018-02-12T01:55:59.797Z,86.89
2018-02-12T01:58:27.205Z,86.34
2018-02-12T02:00:54.609Z,86.08
2018-02-12T02:03:22.060Z,85.63
2018-02-12T02:05:49.697Z,85.18
2018-02-12T02:08:17.108Z,84.54
2018-02-12T02:10:44.513Z,84.39
2018-02-12T02:13:11.957Z,84.85
2018-02-12T02:15:39.354Z,84.48
2018-02-12T02:18:06.778Z,84.53
2018-02-12T02:20:34.177Z,84.29
2018-02-12T02:23:01.603Z,84.77
2018-02-12T02:25:29.886Z,84.22
2018-02-12T02:27:57.407Z,84.63
2018-02-12T02:30:24.877Z,84.37
2018-02-12T02:32:52.277Z,84.08
2018-02-12T02:35:19.695Z,84.56
2018-02-12T02:37:47.125Z,84.55
2018-02-12T02:40:14.543Z,84.87
2018-02-12T02:42:41.941Z,83.78
2018-02-12T02:45:09.363Z,83.37
2018-02-12T02:47:36.796Z,83.53
2018-02-12T02:50:04.205Z,84.15
2018-02-12T02:52:31.642Z,83.58
2018-02-12T02:54:59.061Z,83.79
2018-02-12T02:57:26.461Z,83.83
2018-02-12T02:59:53.898Z,83.58
2018-02-12T03:02:21.306Z,82.95
2018-02-12T03:04:48.725Z,83.72
2018-02-12T03:07:16.186Z,83.74
2018-02-12T03:09:43.618Z,84.09
2018-02-12T03:12:11.047Z,84.03
2018-02-12T03:14:38.480Z,83.73
2018-02-12T03:17:05.889Z,83.59
2018-02-12T03:19:33.308Z,83.97
2018-02-12T03:22:01.604Z,83.42
2018-02-12T03:24:29.018Z,84.04
2018-02-12T03:26:56.414Z,83.66
2018-02-12T03:29:23.841Z,83.79
2018-02-12T03:31:51.257Z,83.67
2018-02-12T03:34:18.670Z,83.86
2018-02-12T03:36:46.098Z,83.85
2018-02-12T03:39:13.511Z,83.54
2018-02-12T03:41:40.965Z,83.04
2018-02-12T03:44:08.363Z,83.36
2018-02-12T03:46:35.781Z,83.67
2018-02-12T03:49:03.296Z,83.77
2018-02-12T03:51:30.697Z,84.07
2018-02-12T03:53:58.128Z,83.79
2018-02-12T03:56:25.589Z,83.57
2018-02-12T03:58:52.993Z,83.42
2018-02-12T04:01:20.394Z,83.97
2018-02-12T04:03:47.790Z,83.12
2018-02-12T04:06:15.218Z,83.54
2018-02-12T04:08:42.633Z,83.42
2018-02-12T04:11:10.124Z,83.50
2018-02-12T04:13:37.559Z,83.38
2018-02-12T04:16:05.026Z,82.74
2018-02-12T04:18:33.316Z,82.72
2018-02-12T04:21:00.744Z,82.58
2018-02-12T04:23:28.174Z,82.82
2018-02-12T04:25:55.588Z,82.95
2018-02-12T04:28:22.989Z,82.67
2018-02-12T04:30:50.491Z,82.65
2018-02-12T04:33:17.899Z,82.53
2018-02-12T04:35:45.317Z,82.46
2018-02-12T04:38:12.733Z,83.12
2018-02-12T04:40:40.177Z,83.39
2018-02-12T04:43:07.589Z,83.15
2018-02-12T04:45:34.992Z,82.95
2018-02-12T04:48:02.412Z,83.00
2018-02-12T04:50:29.839Z,83.05
2018-02-12T04:52:57.266Z,83.03
2018-02-12T04:55:24.678Z,82.22
2018-02-12T04:57:52.131Z,82.50
2018-02-12T05:00:19.523Z,81.89
2018-02-12T05:02:46.938Z,81.64
2018-02-12T05:05:14.341Z,81.97
2018-02-12T05:07:41.784Z,82.34
2018-02-12T05:10:09.186Z,82.48
2018-02-12T05:12:36.593Z,81.78
2018-02-12T05:15:04.017Z,81.21
2018-02-12T05:17:31.499Z,80.90
2018-02-12T05:19:58.906Z,80.57
2018-02-12T05:22:26.310Z,80.80
2018-02-12T05:24:53.717Z,80.48
2018-02-12T05:27:21.132Z,80.24
2018-02-12T05:29:48.543Z,80.55
2018-02-12T05:32:15.981Z,80.33
2018-02-12T05:34:43.438Z,81.34
2018-02-12T05:37:10.844Z,80.92
2018-02-12T05:39:38.295Z,80.99
2018-02-12T05:42:06.303Z,81.34
2018-02-12T05:44:33.706Z,81.15
2018-02-12T05:47:01.126Z,81.47
2018-02-12T05:49:28.532Z,81.31
2018-02-12T05:51:55.966Z,81.05
2018-02-12T05:54:23.366Z,80.84
2018-02-12T05:56:50.781Z,80.74
2018-02-12T05:59:18.186Z,81.11
2018-02-12T06:01:45.598Z,80.77
2018-02-12T06:04:13.063Z,80.62
2018-02-12T06:06:40.499Z,79.94
2018-02-12T06:09:07.901Z,79.25
2018-02-12T06:11:35.318Z,80.08
2018-02-12T06:14:02.737Z,80.08
2018-02-12T06:16:30.137Z,80.69
2018-02-12T06:18:57.601Z,80.84
2018-02-12T06:21:24.996Z,80.45
2018-02-12T06:23:52.417Z,80.83
2018-02-12T06:26:19.907Z,80.74
2018-02-12T06:28:53.170Z,80.85
2018-02-12T06:31:20.565Z,80.67
2018-02-12T06:33:47.969Z,81.25
2018-02-12T06:36:15.412Z,81.16
2018-02-12T06:38:42.822Z,81.20
2018-02-12T06:41:10.254Z,81.55
2018-02-12T06:43:38.624Z,81.19
2018-02-12T06:46:06.064Z,82.35
2018-02-12T06:48:33.472Z,82.40
2018-02-12T06:51:00.885Z,82.22
2018-02-12T06:53:28.304Z,82.66
2018-02-12T06:55:55.751Z,81.78
2018-02-12T06:58:23.219Z,81.69
2018-02-12T07:00:50.660Z,81.21
2018-02-12T07:03:18.088Z,81.40
2018-02-12T07:05:45.498Z,81.46
2018-02-12T07:08:12.922Z,81.13
2018-02-12T07:10:40.355Z,81.10
2018-02-12T07:13:07.769Z,80.98
2018-02-12T07:15:35.180Z,80.35
2018-02-12T07:18:02.590Z,80.76
2018-02-12T07:20:30.029Z,80.46
2018-02-12T07:22:57.430Z,80.69
2018-02-12T07:25:24.828Z,79.87
2018-02-12T07:27:52.234Z,80.10
2018-02-12T07:30:19.680Z,80.04
2018-02-12T07:32:47.100Z,80.46
2018-02-12T07:35:14.502Z,80.88
2018-02-12T07:37:41.927Z,81.73
2018-02-12T07:40:09.345Z,81.91
2018-02-12T07:42:36.835Z,81.43
2018-02-12T07:45:04.266Z,81.91
2018-02-12T07:47:31.776Z,81.70
2018-02-12T07:49:59.184Z,82.79
2018-02-12T07:52:26.584Z,83.76
2018-02-12T07:54:53.996Z,84.75
2018-02-12T07:57:21.398Z,84.38
2018-02-12T07:59:48.803Z,83.00
2018-02-12T08:02:16.213Z,81.67
2018-02-12T08:04:43.625Z,81.12
2018-02-12T08:07:11.028Z,81.18
2018-02-12T08:09:38.475Z,79.64
2018-02-12T08:12:05.928Z,78.51
2018-02-12T08:14:33.290Z,78.17
2018-02-12T08:17:00.707Z,77.70
2018-02-12T08:19:28.152Z,76.05
2018-02-12T08:21:55.560Z,74.59
2018-02-12T08:24:23.017Z,75.73
2018-02-12T08:26:50.439Z,74.92
2018-02-12T08:29:17.842Z,76.04
2018-02-12T08:31:45.267Z,75.48
2018-02-12T08:34:13.378Z,75.90
2018-02-12T08:36:40.796Z,74.89
2018-02-12T08:39:08.193Z,74.80
2018-02-12T08:41:35.622Z,73.83
2018-02-12T08:44:03.022Z,73.52
2018-02-12T08:46:30.514Z,73.37
2018-02-12T08:48:57.914Z,72.46
2018-02-12T08:51:25.375Z,72.17
2018-02-12T08:53:52.765Z,71.98
2018-02-12T08:56:20.181Z,71.61
2018-02-12T08:58:47.577Z,71.46
2018-02-12T09:01:14.998Z,71.98
2018-02-12T09:03:42.408Z,70.56
2018-02-12T09:06:09.847Z,71.94
2018-02-12T09:08:37.292Z,72.77
2018-02-12T09:11:04.762Z,72.25
2018-02-12T09:13:32.157Z,71.46
2018-02-12T09:15:59.590Z,72.09
2018-02-12T09:18:26.996Z,70.87
2018-02-12T09:20:54.406Z,71.75
2018-02-12T09:23:21.826Z,71.78
2018-02-12T09:25:49.270Z,70.03
2018-02-12T09:28:16.752Z,69.55
2018-02-12T09:30:44.188Z,68.83
2018-02-12T09:33:11.601Z,70.63
2018-02-12T09:35:39.014Z,69.28
2018-02-12T09:38:06.441Z,68.79
2018-02-12T09:40:33.854Z,67.97
2018-02-12T09:43:01.267Z,67.29
2018-02-12T09:45:28.680Z,67.17
2018-02-12T09:47:56.100Z,68.09
2018-02-12T09:50:23.506Z,67.33
2018-02-12T09:52:50.914Z,66.79
2018-02-12T09:55:18.340Z,66.78
2018-02-12T09:57:45.777Z,66.64
2018-02-12T10:00:13.218Z,66.85
2018-02-12T10:02:40.637Z,65.88
2018-02-12T10:05:08.044Z,66.58
2018-02-12T10:07:35.497Z,66.99
2018-02-12T10:10:02.900Z,66.34
2018-02-12T10:12:30.316Z,65.39
2018-02-12T10:14:57.712Z,64.97
2018-02-12T10:17:25.128Z,64.86
2018-02-12T10:19:52.530Z,64.81
2018-02-12T10:22:19.950Z,65.61
2018-02-12T10:24:47.341Z,65.62
2018-02-12T10:27:14.768Z,65.75
2018-02-12T10:29:42.158Z,65.32
2018-02-12T10:32:09.566Z,65.66
2018-02-12T10:34:37.020Z,64.09
2018-02-12T10:37:04.429Z,65.21
2018-02-12T10:39:31.859Z,65.71
2018-02-12T10:41:59.254Z,64.84
2018-02-12T10:44:26.665Z,64.68
2018-02-12T10:46:54.083Z,65.41
2018-02-12T10:49:21.522Z,65.73
2018-02-12T10:51:50.029Z,65.16
2018-02-12T10:54:17.522Z,65.62
2018-02-12T10:56:44.929Z,65.48
2018-02-12T10:59:12.368Z,65.42
2018-02-12T11:01:39.757Z,65.40
2018-02-12T11:04:07.177Z,64.42
2018-02-12T11:06:34.578Z,64.98
2018-02-12T11:09:01.995Z,64.63
2018-02-12T11:11:29.392Z,64.29
2018-02-12T11:13:56.820Z,65.81
2018-02-12T11:16:24.228Z,63.87
2018-02-12T11:18:51.657Z,63.37
2018-02-12T11:21:19.055Z,62.49
2018-02-12T11:23:46.468Z,62.29
2018-02-12T11:26:13.874Z,62.24
2018-02-12T11:28:41.346Z,61.74
2018-02-12T11:31:08.782Z,61.88
2018-02-12T11:33:36.184Z,61.00
2018-02-12T11:36:03.582Z,59.53
2018-02-12T11:38:31.013Z,60.27
2018-02-12T11:40:58.513Z,57.43
2018-02-12T11:43:25.916Z,56.71
2018-02-12T11:45:53.331Z,59.10
2018-02-12T11:48:20.744Z,56.99
2018-02-12T11:50:48.174Z,58.71
2018-02-12T11:53:15.576Z,61.58
2018-02-12T11:55:43.005Z,63.84
2018-02-12T11:58:10.426Z,66.34
2018-02-12T12:00:37.842Z,67.31
2018-02-12T12:03:05.301Z,66.79
2018-02-12T12:05:32.705Z,65.90
2018-02-12T12:08:00.121Z,64.70
2018-02-12T12:10:27.532Z,64.98
2018-02-12T12:12:54.926Z,63.48
2018-02-12T12:15:23.225Z,63.77
2018-02-12T12:17:50.635Z,64.36
2018-02-12T12:20:18.053Z,63.24
2018-02-12T12:22:45.456Z,65.05
2018-02-12T12:25:12.900Z,66.58
2018-02-12T12:27:40.301Z,67.98
2018-02-12T12:30:07.709Z,68.90
2018-02-12T12:32:35.112Z,68.70
2018-02-12T12:35:02.543Z,66.95
2018-02-12T12:37:29.949Z,65.05
2018-02-12T12:39:57.363Z,65.08
2018-02-12T12:42:24.764Z,63.03
2018-02-12T12:44:52.181Z,62.21
2018-02-12T12:47:22.172Z,58.18
2018-02-12T12:49:47.098Z,71.55
2018-02-12T12:52:14.513Z,73.59
2018-02-12T12:54:41.913Z,77.42
2018-02-12T12:57:09.381Z,80.65
2018-02-12T12:59:36.785Z,80.31
2018-02-12T13:02:04.214Z,81.97
2018-02-12T13:04:31.616Z,82.09
2018-02-12T13:06:59.022Z,83.46
2018-02-12T13:09:26.412Z,83.20
2018-02-12T13:11:54.498Z,84.03
2018-02-12T13:14:21.913Z,83.27
2018-02-12T13:16:49.328Z,83.52
2018-02-12T13:19:16.721Z,82.19
2018-02-12T13:21:44.131Z,80.86
2018-02-12T13:24:11.530Z,80.33
2018-02-12T13:29:12.885Z,79.59
2018-02-12T13:31:40.694Z,78.33
2018-02-12T13:34:08.089Z,78.99
2018-02-12T13:36:35.569Z,81.63
2018-02-12T13:39:02.973Z,81.60
2018-02-12T13:41:30.391Z,82.75
2018-02-12T13:43:57.782Z,83.62
2018-02-12T13:46:25.371Z,82.53
2018-02-12T13:48:52.757Z,81.27
2018-02-12T13:51:20.220Z,80.56
2018-02-12T13:53:47.656Z,78.84
2018-02-12T13:56:15.117Z,78.05
2018-02-12T13:58:42.532Z,77.43
2018-02-12T14:01:09.924Z,76.55
2018-02-12T14:03:37.339Z,77.70
2018-02-12T14:06:04.737Z,76.23
2018-02-12T14:08:32.154Z,75.03
2018-02-12T14:10:59.561Z,77.50
2018-02-12T14:13:27.076Z,79.43
2018-02-12T14:15:54.464Z,83.53
2018-02-12T14:18:21.877Z,86.30
2018-02-12T14:20:49.277Z,86.72
2018-02-12T14:23:16.699Z,84.57
2018-02-12T14:25:44.147Z,82.88
2018-02-12T14:28:11.627Z,81.30
2018-02-12T14:30:39.073Z,80.21
2018-02-12T14:33:06.487Z,80.16
2018-02-12T14:35:33.916Z,77.36
2018-02-12T14:38:01.370Z,74.42
2018-02-12T14:40:28.765Z,74.00
2018-02-12T14:42:56.679Z,75.79
2018-02-12T14:45:24.117Z,74.18
2018-02-12T14:47:51.529Z,73.94
2018-02-12T14:50:18.945Z,74.30
2018-02-12T14:52:46.376Z,75.16
2018-02-12T14:55:13.778Z,74.41
2018-02-12T14:57:41.209Z,73.68
2018-02-12T15:00:08.621Z,72.55
2018-02-12T15:02:36.103Z,73.49
2018-02-12T15:05:03.546Z,73.09
2018-02-12T15:07:30.953Z,73.99
2018-02-12T15:09:58.360Z,75.08
2018-02-12T15:12:25.772Z,73.91
2018-02-12T15:14:53.174Z,75.02
2018-02-12T15:17:20.578Z,74.76
2018-02-12T15:19:48.003Z,75.41
2018-02-12T15:22:15.426Z,74.67
2018-02-12T15:24:43.292Z,73.84
2018-02-12T15:27:10.690Z,73.14
2018-02-12T15:29:38.123Z,71.97
2018-02-12T15:32:05.526Z,70.37
2018-02-12T15:34:33.005Z,69.72
2018-02-12T15:37:00.422Z,70.33
2018-02-12T15:39:28.290Z,70.26
2018-02-12T15:41:55.690Z,69.69
2018-02-12T15:44:23.100Z,69.82
2018-02-12T15:46:50.599Z,69.45
2018-02-12T15:49:18.013Z,68.98
2018-02-12T15:51:45.417Z,67.95
2018-02-12T15:54:12.854Z,68.44
2018-02-12T15:56:40.298Z,68.39
2018-02-12T15:59:07.708Z,68.01
2018-02-12T16:01:35.116Z,68.77
2018-02-12T16:04:02.538Z,68.57
2018-02-12T16:06:29.946Z,69.29
2018-02-12T16:08:57.382Z,74.52
2018-02-12T16:11:24.805Z,77.29
2018-02-12T16:13:52.289Z,81.91
2018-02-12T16:16:19.730Z,84.36
2018-02-12T16:18:47.160Z,85.46
2018-02-12T16:21:14.571Z,85.21
2018-02-12T16:23:41.971Z,83.26
2018-02-12T16:26:09.440Z,82.72
2018-02-12T16:28:36.942Z,82.42
2018-02-12T16:31:04.384Z,82.94
2018-02-12T16:33:31.829Z,82.97
2018-02-12T16:35:59.742Z,82.86
2018-02-12T16:38:27.141Z,83.23
2018-02-12T16:40:54.557Z,83.20
2018-02-12T16:43:21.964Z,83.64
2018-02-12T16:45:49.385Z,84.05
2018-02-12T16:48:16.786Z,84.08
2018-02-12T16:50:44.229Z,84.29
2018-02-12T16:53:11.652Z,84.42
2018-02-12T16:55:39.083Z,84.77
2018-02-12T16:58:06.628Z,85.14
2018-02-12T17:00:33.993Z,85.06
2018-02-12T17:03:01.394Z,85.04
2018-02-12T17:05:29.813Z,85.03
2018-02-12T17:07:57.231Z,84.90
2018-02-12T17:10:24.707Z,84.77
2018-02-12T17:12:52.124Z,84.37
2018-02-12T17:15:19.598Z,84.21
2018-02-12T17:17:47.037Z,84.40
2018-02-12T17:20:14.517Z,84.63
2018-02-12T17:22:42.602Z,84.46
2018-02-12T17:25:10.014Z,84.18
2018-02-12T17:27:37.427Z,84.20
2018-02-12T17:30:04.823Z,84.42
2018-02-12T17:32:32.237Z,84.77
2018-02-12T17:34:59.670Z,85.12
2018-02-12T17:37:27.087Z,85.22
2018-02-12T17:39:54.484Z,85.71
2018-02-12T17:42:21.941Z,86.13
2018-02-12T17:44:49.389Z,86.04
2018-02-12T17:47:16.805Z,85.87
2018-02-12T17:49:44.273Z,85.88
2018-02-12T17:52:11.753Z,85.61
2018-02-12T17:54:39.153Z,85.25
2018-02-12T17:57:06.627Z,85.33
2018-02-12T17:59:34.025Z,85.39
2018-02-12T18:02:02.418Z,85.30
2018-02-12T18:04:29.858Z,85.32
2018-02-12T18:06:57.278Z,84.96
2018-02-12T18:09:24.692Z,85.18
2018-02-12T18:11:52.114Z,84.17
2018-02-12T18:14:19.533Z,84.23
2018-02-12T18:16:46.955Z,82.73
2018-02-12T18:19:14.370Z,82.77
2018-02-12T18:21:41.805Z,82.95
2018-02-12T18:24:09.233Z,82.81
2018-02-12T18:26:36.647Z,82.25
2018-02-12T18:29:04.071Z,81.35
2018-02-12T18:31:31.469Z,81.09
2018-02-12T18:33:58.895Z,81.08
2018-02-12T18:36:26.307Z,80.84
2018-02-12T18:38:53.898Z,80.73
2018-02-12T18:41:21.308Z,81.10
2018-02-12T18:43:48.716Z,82.14
2018-02-12T18:46:16.120Z,81.80
2018-02-12T18:48:43.525Z,82.14
2018-02-12T18:51:10.932Z,81.94
2018-02-12T18:53:38.355Z,81.80
2018-02-12T18:56:05.815Z,81.72
2018-02-12T18:58:33.200Z,81.85
2018-02-12T19:01:00.603Z,82.27
2018-02-12T19:03:28.068Z,81.39
2018-02-12T19:05:55.481Z,81.12
2018-02-12T19:08:22.937Z,82.23
2018-02-12T19:10:50.297Z,81.24
2018-02-12T19:13:17.735Z,81.48
2018-02-12T19:15:45.183Z,81.02
2018-02-12T19:18:12.645Z,80.98
2018-02-12T19:20:40.076Z,80.95
2018-02-12T19:23:07.497Z,81.91
2018-02-12T19:25:35.166Z,82.96
2018-02-12T19:28:02.628Z,82.92
2018-02-12T19:30:30.041Z,82.56
2018-02-12T19:32:57.481Z,82.11
2018-02-12T19:35:24.895Z,82.89
2018-02-12T19:37:52.320Z,82.86
2018-02-12T19:40:19.744Z,83.14
2018-02-12T19:42:47.157Z,83.73
2018-02-12T19:45:14.602Z,83.97
2018-02-12T19:47:42.113Z,83.92
2018-02-12T19:50:09.549Z,83.95
2018-02-12T19:52:37.055Z,83.94
2018-02-12T19:55:04.469Z,83.66
2018-02-12T19:57:31.964Z,83.43
2018-02-12T19:59:59.341Z,82.64
2018-02-12T20:02:26.766Z,82.18
2018-02-12T20:04:54.185Z,81.44
2018-02-12T20:07:21.611Z,81.65
2018-02-12T20:09:49.110Z,82.50
2018-02-12T20:12:16.528Z,81.47
2018-02-12T20:14:43.939Z,81.45
2018-02-12T20:17:11.351Z,80.97
2018-02-12T20:19:38.777Z,80.97
2018-02-12T20:22:07.253Z,81.26
2018-02-12T20:24:34.685Z,81.75
2018-02-12T20:27:02.125Z,81.29
2018-02-12T20:29:29.581Z,80.91
2018-02-12T20:31:56.966Z,82.10
2018-02-12T20:34:24.378Z,81.35
2018-02-12T20:36:51.795Z,81.01
2018-02-12T20:39:19.213Z,80.89
2018-02-12T20:41:46.622Z,82.17
2018-02-12T20:44:14.052Z,81.69
2018-02-12T20:46:41.466Z,81.49
2018-02-12T20:49:08.886Z,80.30
2018-02-12T20:51:36.320Z,80.15
2018-02-12T20:54:03.729Z,79.80
2018-02-12T20:56:31.172Z,79.73
2018-02-12T20:58:58.577Z,80.16
2018-02-12T21:01:25.996Z,80.03
2018-02-12T21:03:53.410Z,80.77
2018-02-12T21:06:20.861Z,80.95
2018-02-12T21:08:48.265Z,80.80
2018-02-12T21:11:15.713Z,81.02
2018-02-12T21:13:43.160Z,81.82
2018-02-12T21:16:10.590Z,81.60
2018-02-12T21:18:38.002Z,81.01
2018-02-12T21:21:05.426Z,81.26
2018-02-12T21:23:32.887Z,81.82
2018-02-12T21:26:00.297Z,82.06
2018-02-12T21:28:27.705Z,81.27
2018-02-12T21:30:55.117Z,82.92
2018-02-12T21:33:22.522Z,82.12
2018-02-12T21:35:49.952Z,81.08
2018-02-12T21:38:17.367Z,82.12
2018-02-12T21:40:44.904Z,82.10
2018-02-12T21:43:12.264Z,81.19
2018-02-12T21:45:40.537Z,82.06
2018-02-12T21:48:07.945Z,82.07
2018-02-12T21:50:35.382Z,81.60
2018-02-12T21:53:02.799Z,81.31
2018-02-12T21:55:30.200Z,80.44
2018-02-12T21:57:57.614Z,81.19
2018-02-12T22:02:38.727Z,81.46
2018-02-12T22:05:06.133Z,80.88
2018-02-12T22:07:33.539Z,82.14
2018-02-12T22:10:00.940Z,80.93
2018-02-12T22:12:28.348Z,79.71
2018-02-12T22:14:55.768Z,79.21
2018-02-12T22:17:23.187Z,79.27
2018-02-12T22:19:50.601Z,80.00
2018-02-12T22:22:18.008Z,79.26
2018-02-12T22:24:45.420Z,78.18
2018-02-12T22:27:12.828Z,77.93
2018-02-12T22:29:40.229Z,78.73
2018-02-12T22:32:07.647Z,79.87
2018-02-12T22:34:35.052Z,79.66
2018-02-12T22:37:02.460Z,80.04
2018-02-12T22:39:29.863Z,79.47
2018-02-12T22:41:57.280Z,78.88
2018-02-12T22:46:58.584Z,78.73
2018-02-12T22:49:25.988Z,79.03
2018-02-12T22:51:53.408Z,79.20
2018-02-12T22:54:20.818Z,79.02
2018-02-12T22:56:48.228Z,78.91
2018-02-12T22:59:15.637Z,79.41
2018-02-12T23:01:43.756Z,80.15
2018-02-12T23:04:11.171Z,80.09
2018-02-12T23:06:38.568Z,80.35
2018-02-12T23:09:05.983Z,81.20
2018-02-12T23:11:33.389Z,81.48
2018-02-12T23:14:00.816Z,81.54
2018-02-12T23:16:28.223Z,81.12
2018-02-12T23:18:55.637Z,80.61
2018-02-12T23:21:23.053Z,81.41
2018-02-12T23:23:50.470Z,81.54
2018-02-12T23:26:17.884Z,80.98
2018-02-12T23:28:45.292Z,81.21
2018-02-12T23:31:12.694Z,80.39
2018-02-12T23:33:40.104Z,79.96
2018-02-12T23:36:07.522Z,80.02
2018-02-12T23:38:34.920Z,80.40
2018-02-12T23:41:02.335Z,80.41
2018-02-12T23:43:29.748Z,80.52
2018-02-12T23:45:57.155Z,80.80
2018-02-12T23:48:24.569Z,80.48
2018-02-12T23:50:51.964Z,80.62
2018-02-12T23:53:19.386Z,81.06
2018-02-12T23:55:46.784Z,81.08
2018-02-12T23:58:14.206Z,80.92
